Londyn, United Kingdom

02:52 BST dnia 26-wrzesień-2016 (GMT +0100)
Heathrow | | Change Station

Wysokość 79 ft 51.48 °N, 0.46 °W | Updated 32 minutes ago

Clear
pogodnie
52 ° F
Odczuwalna 52 ° F
Płn.
4
Wiatr zmienny Wiatr od południowy

Dziś
Wysoka -- | Niska -- ° F
--% Prawdop. opadów
Wczoraj
Wysoka -- | Niska -- ° F
Precip. -- cali
Ciśnienie 30.18 cali
Widzialność 6.2 mil
chmury
Punkt rosy 48 ° F
Wilgotność 88%
Opady deszczu 0.00 cali
grubość pokrywy śnieżnej Niedostępne.
6:54 AM 6:50 PM
Zmniejszający się sierp Księżyca, 23% visible
METAR EGLL 260120Z AUTO 17003KT 9999 NCD 11/09 Q1022 NOSIG
Ciśnienie 30.18 cali
Widzialność 6.2 mil
chmury
Punkt rosy 48 ° F
Wilgotność 88%
Opady deszczu 0.00 cali
grubość pokrywy śnieżnej Niedostępne.
6:54 AM 6:50 PM
Zmniejszający się sierp Księżyca, 23% visible
METAR EGLL 260120Z AUTO 17003KT 9999 NCD 11/09 Q1022 NOSIG

10-Day Weather Forecast

×

Almanac

Astronomia

Sep. 26, 2016 Wschód Zachów
Aktualny czas
Zmierzch cywilny
Zmierzch żeglarski
świt/zmierzch astronomiczny
Księżyc
całkowite oświetlenie
Długość dnia
Tomorrow will be .
, % of the Moon is Illuminated

Dzisiejsze ekstrema

Country Highs Country Lows

Community

WunderPhotos

Upload Photos

1,941,808 zdjęcia zostały przesłane!

WunderBlog® & News

Nearby

Jakość powietrza

  Jakość powietrza czynnik AQ Zanieczyszczenie
Not available.

Głębokość pokrywy śnieżnej

Station Depth n.p.m.

Aktywność sejsmiczna

Miejscowość Distance Mag. Time & Date
Minimum magnitude displayed is 2.5.

Temperatury wody na wybrzeżu

Miejsce Temperatura

Stations

Najbliższa stacja pogodowa

Lokalizacja stacji Temp. czynnik chłodzący wiatru Punkt rosy Wilgotność Wiatr Precip. Wysokość Uaktualniono Typ